Time;durP1;ratioP1;P1;durP2;ratioP2;P2;SDS_P1;SDS_P2;PMS_P1;PMS_P2;Temp;Humidity;BMP_temperature;BMP_pressure;BME280_temperature;BME280_humidity;BME280_pressure;Samples;Min_cycle;Max_cycle;Signal;HPM_P1;HPM_P2
2022/09/04 00:02:24;;;;;;;;;;;;;;;14.96;80.53;99780.56;1613299;87;20461;-67
2022/09/04 00:05:13;;;;;;;;;;;;;;;14.87;80.52;99784.36;1611458;87;20088;-65
2022/09/04 00:07:56;;;;;;;;;;;;;;;14.79;80.62;99783.47;1611439;87;20104;-68
2022/09/04 00:10:29;;;;;;;;;;;;;;;14.75;80.78;99785.39;1588808;87;20181;-67
2022/09/04 00:13:20;;;;;;;;;;;;;;;14.72;80.86;99787.94;1612026;87;21200;-66
2022/09/04 00:16:02;;;;;;;;;;;;;;;14.69;80.90;99788.31;1614203;87;20152;-65
2022/09/04 00:18:44;;;;;;;;;;;;;;;14.67;80.97;99787.67;1612862;87;20116;-66
2022/09/04 00:21:19;;;;;;;;;;;;;;;14.65;80.95;99792.37;1612231;87;20948;-64
2022/09/04 00:24:06;;;;;;;;;;;;;;;14.65;80.96;99798.26;1610784;87;20181;-66
2022/09/04 00:26:56;;;;;;;;;;;;;;;14.63;81.00;99797.09;1612438;87;21302;-65
2022/09/04 00:29:36;;;;;;;;;;;;;;;14.64;80.97;99801.94;1612264;87;20127;-67
2022/09/04 00:32:26;;;;;;;;;;;;;;;14.61;80.84;99803.65;1612482;87;20104;-67
2022/09/04 00:35:05;;;;;;;;;;;;;;;14.57;80.72;99803.72;1611115;87;20217;-64
2022/09/04 00:37:34;;;;;;;;;;;;;;;14.51;80.68;99805.30;1611744;87;20088;-66
2022/09/04 00:40:04;;;;;;;;;;;;;;;14.44;80.74;99813.77;1596044;87;21297;-65
2022/09/04 00:42:37;;;;;;;;;;;;;;;14.41;80.85;99815.47;1611469;87;20121;-64
2022/09/04 00:45:13;;;;;;;;;;;;;;;14.37;80.76;99813.33;1613183;87;20114;-66
2022/09/04 00:47:43;;;;;;;;;;;;;;;14.30;80.66;99813.73;1612209;87;20104;-66
2022/09/04 00:50:29;;;;;;;;;;;;;;;14.24;80.87;99817.97;1613003;87;20155;-65
2022/09/04 00:53:22;;;;;;;;;;;;;;;14.22;81.09;99815.50;1602720;87;21157;-66
2022/09/04 00:56:04;;;;;;;;;;;;;;;14.22;81.20;99813.32;1612355;87;20104;-65
2022/09/04 00:58:50;;;;;;;;;;;;;;;14.21;81.25;99817.00;1613227;87;20114;-64
2022/09/04 01:01:25;;;;;;;;;;;;;;;14.23;81.27;99817.67;1610409;87;20121;-66
2022/09/04 01:03:56;;;;;;;;;;;;;;;14.26;81.18;99820.48;1575518;87;20088;-64
2022/09/04 01:06:29;;;;;;;;;;;;;;;14.28;81.18;99818.44;1609073;87;21877;-66
2022/09/04 01:09:20;;;;;;;;;;;;;;;14.30;81.09;99823.09;1611859;87;20097;-66
2022/09/04 01:12:08;;;;;;;;;;;;;;;14.29;80.90;99820.92;1609304;87;20163;-64
2022/09/04 01:14:51;;;;;;;;;;;;;;;;;;1614092;87;20459;-64
2022/09/04 01:17:35;;;;;;;;;;;;;;;14.13;80.41;99827.83;1610821;87;20124;-67
2022/09/04 01:20:40;;;;;;;;;;;;;;;14.03;80.43;99826.73;1610073;87;21143;-65
2022/09/04 01:23:45;;;;;;;;;;;;;;;13.94;80.45;99833.21;1609278;87;20264;-65
2022/09/04 01:26:18;;;;;;;;;;;;;;;13.86;80.59;99836.47;1612354;87;20139;-67
2022/09/04 01:29:23;;;;;;;;;;;;;;;13.79;80.73;99826.98;1611489;87;20084;-63
2022/09/04 01:32:05;;;;;;;;;;;;;;;13.72;80.79;99826.56;1613057;87;20104;-67
2022/09/04 01:34:42;;;;;;;;;;;;;;;13.62;81.10;99824.16;1608967;87;21099;-67
2022/09/04 01:37:21;;;;;;;;;;;;;;;13.55;81.18;99816.05;1610828;87;20138;-65
2022/09/04 01:39:51;;;;;;;;;;;;;;;13.49;81.34;99823.45;1614378;87;20105;-66
2022/09/04 01:42:22;;;;;;;;;;;;;;;13.42;81.55;99825.19;1613454;87;20180;-65
2022/09/04 01:44:49;;;;;;;;;;;;;;;13.40;81.88;99827.19;1613681;87;20427;-66
2022/09/04 01:47:25;;;;;;;;;;;;;;;13.40;82.04;99825.84;1611243;87;21172;-66
2022/09/04 01:50:04;;;;;;;;;;;;;;;13.37;82.06;99830.23;1608125;87;20096;-67
2022/09/04 01:52:48;;;;;;;;;;;;;;;13.32;82.02;99828.58;1613312;87;20130;-65
2022/09/04 01:55:22;;;;;;;;;;;;;;;13.23;81.95;99822.99;1613071;87;20489;-67
2022/09/04 01:58:04;;;;;;;;;;;;;;;13.14;82.06;99830.73;1610948;87;20085;-66
2022/09/04 02:00:37;;;;;;;;;;;;;;;13.07;82.14;99825.78;1616330;86;21698;-67
2022/09/04 02:03:07;;;;;;;;;;;;;;;12.99;82.24;99825.30;1610894;87;20143;-64
2022/09/04 02:05:52;;;;;;;;;;;;;;;12.93;82.36;99826.53;1611829;87;20092;-66
2022/09/04 02:08:41;;;;;;;;;;;;;;;12.85;82.53;99826.05;1608451;87;20176;-66
2022/09/04 02:11:15;;;;;;;;;;;;;;;12.78;82.75;99826.94;1587130;87;20173;-65
2022/09/04 02:14:17;;;;;;;;;;;;;;;12.72;82.92;99832.47;1613291;87;21112;-65
2022/09/04 02:17:07;;;;;;;;;;;;;;;12.69;83.10;99837.34;1611526;87;20112;-66
2022/09/04 02:19:52;;;;;;;;;;;;;;;12.64;83.25;99836.54;1610041;87;20093;-64
2022/09/04 02:22:40;;;;;;;;;;;;;;;12.63;83.43;99842.03;1610618;87;20104;-66
2022/09/04 02:25:17;;;;;;;;;;;;;;;12.57;83.52;99839.55;1613705;87;20124;-66
2022/09/04 02:27:47;;;;;;;;;;;;;;;12.55;83.79;99836.23;1613201;87;22234;-67
2022/09/04 02:30:16;;;;;;;;;;;;;;;12.54;83.76;99841.77;1612043;87;21224;-64
2022/09/04 02:33:04;;;;;;;;;;;;;;;12.50;83.59;99843.09;1610826;87;20128;-67
2022/09/04 02:35:47;;;;;;;;;;;;;;;12.44;83.59;99844.62;1612558;87;20136;-66
2022/09/04 02:38:38;;;;;;;;;;;;;;;12.38;83.53;99843.47;1615801;87;20193;-65
2022/09/04 02:41:25;;;;;;;;;;;;;;;12.37;83.72;99844.49;1583679;87;21151;-66
2022/09/04 02:44:24;;;;;;;;;;;;;;;12.39;83.95;99844.31;1612634;87;20156;-64
2022/09/04 02:47:14;;;;;;;;;;;;;;;12.44;84.15;99845.95;1613868;87;20162;-67
2022/09/04 02:49:56;;;;;;;;;;;;;;;12.47;84.13;99846.11;1612699;87;20101;-64
2022/09/04 02:52:43;;;;;;;;;;;;;;;12.48;84.14;99845.95;1611280;87;20152;-64
2022/09/04 02:55:31;;;;;;;;;;;;;;;12.51;84.15;99846.95;1600154;88;21129;-66
2022/09/04 02:58:05;;;;;;;;;;;;;;;12.56;84.11;99846.42;1601390;88;20134;-65
2022/09/04 03:00:39;;;;;;;;;;;;;;;12.61;84.12;99848.06;1570950;88;20127;-66
2022/09/04 03:03:09;;;;;;;;;;;;;;;12.61;83.88;99842.22;1580581;88;20109;-66
2022/09/04 03:05:57;;;;;;;;;;;;;;;12.63;83.73;99850.88;1596997;88;20117;-65
2022/09/04 03:08:44;;;;;;;;;;;;;;;12.60;83.39;99849.05;1598883;88;21832;-65
2022/09/04 03:11:36;;;;;;;;;;;;;;;12.52;82.92;99845.92;1601793;88;20427;-66
2022/09/04 03:14:23;;;;;;;;;;;;;;;12.44;82.37;99840.62;1596800;88;20180;-65
2022/09/04 03:17:04;;;;;;;;;;;;;;;12.34;82.09;99839.50;1599225;88;20141;-64
2022/09/04 03:19:37;;;;;;;;;;;;;;;12.27;82.18;99837.20;1602111;88;20436;-68
2022/09/04 03:22:07;;;;;;;;;;;;;;;12.26;82.45;99848.86;1598098;88;22081;-66
2022/09/04 03:25:00;;;;;;;;;;;;;;;12.19;82.42;99842.56;1602405;88;20104;-66
2022/09/04 03:27:26;;;;;;;;;;;;;;;12.17;82.66;99841.91;1599232;88;20476;-64
2022/09/04 03:29:56;;;;;;;;;;;;;;;12.15;82.94;99852.42;1597458;88;20170;-67
2022/09/04 03:32:36;;;;;;;;;;;;;;;12.17;83.33;99848.58;1598468;88;20164;-67
2022/09/04 03:35:21;;;;;;;;;;;;;;;12.22;83.53;99853.39;1598719;88;21388;-67
2022/09/04 03:38:08;;;;;;;;;;;;;;;12.26;83.73;99858.20;1599620;88;20093;-65
2022/09/04 03:40:41;;;;;;;;;;;;;;;12.27;83.76;99857.70;1599028;88;20128;-67
2022/09/04 03:43:11;;;;;;;;;;;;;;;12.26;83.81;99862.20;1601498;88;20592;-67
2022/09/04 03:45:57;;;;;;;;;;;;;;;12.28;83.88;99864.19;1599718;88;20216;-65
2022/09/04 03:48:27;;;;;;;;;;;;;;;12.29;83.77;99863.20;1547595;91;21298;-65
2022/09/04 03:51:00;;;;;;;;;;;;;;;12.25;83.63;99867.19;1583850;88;20109;-65
2022/09/04 03:53:36;;;;;;;;;;;;;;;12.23;83.75;99867.88;1594596;88;20463;-66
2022/09/04 03:56:19;;;;;;;;;;;;;;;12.21;83.56;99865.05;1596132;88;20215;-67
2022/09/04 03:58:55;;;;;;;;;;;;;;;12.17;83.47;99864.58;1601750;88;20554;-66
2022/09/04 04:01:37;;;;;;;;;;;;;;;12.16;83.52;99868.23;1598492;88;22115;-65
2022/09/04 04:04:34;;;;;;;;;;;;;;;12.15;83.40;99874.56;1599451;88;20099;-64
2022/09/04 04:07:07;;;;;;;;;;;;;;;12.13;83.10;99873.91;1573879;88;20156;-68
2022/09/04 04:09:52;;;;;;;;;;;;;;;12.10;82.77;99881.41;1597313;88;20479;-65
2022/09/04 04:12:26;;;;;;;;;;;;;;;12.09;82.37;99886.42;1599626;88;20149;-67
2022/09/04 04:15:10;;;;;;;;;;;;;;;12.19;82.62;99885.23;1601088;88;21114;-66
2022/09/04 04:17:40;;;;;;;;;;;;;;;12.56;83.06;99889.12;1597893;88;20422;-65
2022/09/04 04:20:13;;;;;;;;;;;;;;;13.10;82.53;99886.86;1599013;88;20478;-68
2022/09/04 04:23:05;;;;;;;;;;;;;;;13.67;81.56;99886.43;1601079;88;20142;-65
2022/09/04 04:25:55;;;;;;;;;;;;;;;14.29;80.28;99885.14;1559691;90;20207;-64
2022/09/04 04:28:40;;;;;;;;;;;;;;;14.96;78.76;99886.37;1598278;88;21901;-64
2022/09/04 04:31:39;;;;;;;;;;;;;;;15.37;76.64;99890.11;1599832;88;20434;-67
2022/09/04 04:34:17;;;;;;;;;;;;;;;15.30;75.18;99894.59;1600580;88;20134;-64
2022/09/04 04:37:00;;;;;;;;;;;;;;;15.14;74.00;99898.84;1598899;88;20479;-66
2022/09/04 04:39:34;;;;;;;;;;;;;;;14.98;73.25;99896.38;1600357;88;20181;-65
2022/09/04 04:42:16;;;;;;;;;;;;;;;14.81;72.70;99899.27;1586373;88;21138;-65
2022/09/04 04:48:13;;;;;;;;;;;;;;;14.47;72.29;99899.56;1600019;88;20101;-64
2022/09/04 04:51:00;;;;;;;;;;;;;;;14.28;72.23;99901.40;1596967;88;20150;-66
2022/09/04 04:53:49;;;;;;;;;;;;;;;14.20;72.46;99900.98;1598861;88;20123;-65
2022/09/04 04:56:34;;;;;;;;;;;;;;;14.19;72.30;99905.50;1599745;88;22054;-65
2022/09/04 04:59:04;;;;;;;;;;;;;;;14.22;72.39;99904.30;1597008;88;20152;-65
2022/09/04 05:01:59;;;;;;;;;;;;;;;14.23;72.08;99901.96;1596110;88;20137;-66
2022/09/04 05:04:49;;;;;;;;;;;;;;;14.31;72.20;99908.59;1599891;88;20161;-64
2022/09/04 05:07:34;;;;;;;;;;;;;;;14.45;71.88;99906.91;1599397;88;20172;-65
2022/09/04 05:10:05;;;;;;;;;;;;;;;14.65;71.74;99910.19;1597820;88;21833;-66
2022/09/04 05:12:57;;;;;;;;;;;;;;;14.88;71.70;99911.92;1597267;88;20201;-67
2022/09/04 05:15:30;;;;;;;;;;;;;;;15.62;71.54;99912.03;1597487;88;20164;-66
2022/09/04 05:18:03;;;;;;;;;;;;;;;16.67;69.72;99904.27;1599999;88;20131;-66
2022/09/04 05:20:49;;;;;;;;;;;;;;;17.70;67.45;99901.30;1595936;88;20197;-66
2022/09/04 05:23:40;;;;;;;;;;;;;;;18.80;64.49;99903.54;1598338;88;21207;-66
2022/09/04 05:26:13;;;;;;;;;;;;;;;20.08;61.25;99896.95;1600877;88;20171;-65
2022/09/04 05:28:46;;;;;;;;;;;;;;;21.41;56.89;99901.48;1598183;88;20137;-66
2022/09/04 05:31:19;;;;;;;;;;;;;;;22.45;52.77;99894.87;1594280;88;20443;-65
2022/09/04 05:33:52;;;;;;;;;;;;;;;23.35;50.07;99897.86;1600335;88;20503;-64
2022/09/04 05:36:56;;;;;;;;;;;;;;;24.35;46.81;99893.34;1598486;88;21113;-66
2022/09/04 05:39:31;;;;;;;;;;;;;;;25.18;44.68;99891.47;1598556;88;20125;-66
2022/09/04 05:42:07;;;;;;;;;;;;;;;26.05;41.90;99896.13;1598224;88;20097;-66
2022/09/04 05:44:52;;;;;;;;;;;;;;;26.63;39.98;99893.28;1592097;88;20214;-65
2022/09/04 05:47:28;;;;;;;;;;;;;;;27.32;38.74;99894.41;1600418;88;20104;-65
2022/09/04 05:50:04;;;;;;;;;;;;;;;28.00;37.30;99885.74;1600271;88;21190;-65
2022/09/04 05:52:37;;;;;;;;;;;;;;;28.65;35.83;99893.08;1599042;88;20198;-66
2022/09/04 05:55:30;;;;;;;;;;;;;;;29.21;34.66;99892.33;1606981;87;20129;-66
2022/09/04 05:58:03;;;;;;;;;;;;;;;29.93;33.10;99894.91;1607671;87;20421;-67
2022/09/04 06:00:50;;;;;;;;;;;;;;;30.38;31.90;99898.61;1613950;87;20177;-64
2022/09/04 06:03:23;;;;;;;;;;;;;;;30.68;31.34;99898.02;1610183;87;20601;-64
2022/09/04 06:06:08;;;;;;;;;;;;;;;30.98;31.19;99895.75;1615647;87;20122;-64
2022/09/04 06:08:41;;;;;;;;;;;;;;;31.63;29.80;99894.59;1609448;87;20156;-67
2022/09/04 06:11:37;;;;;;;;;;;;;;;32.14;29.31;99896.82;1614237;87;20092;-66
2022/09/04 06:14:30;;;;;;;;;;;;;;;32.74;28.20;99886.63;1608513;87;20096;-65
2022/09/04 06:17:30;;;;;;;;;;;;;;;33.08;27.50;99886.78;1611203;87;21350;-68
2022/09/04 06:20:16;;;;;;;;;;;;;;;33.27;26.94;99884.71;1613387;87;20096;-66
2022/09/04 06:22:59;;;;;;;;;;;;;;;33.46;26.66;99890.31;1594474;87;20128;-67
2022/09/04 06:25:44;;;;;;;;;;;;;;;33.69;26.47;99883.45;1610993;87;20133;-64
2022/09/04 06:28:32;;;;;;;;;;;;;;;33.73;25.87;99883.92;1612894;87;20125;-66
2022/09/04 06:31:22;;;;;;;;;;;;;;;34.09;25.86;99884.69;1611414;86;21134;-67
2022/09/04 06:34:01;;;;;;;;;;;;;;;34.39;24.97;99882.26;1614573;86;20149;-67
2022/09/04 06:36:37;;;;;;;;;;;;;;;34.65;24.92;99879.86;1618163;83;20129;-66
2022/09/04 06:39:07;;;;;;;;;;;;;;;35.09;24.14;99878.91;1617146;86;20123;-63
2022/09/04 06:41:49;;;;;;;;;;;;;;;35.14;23.31;99880.13;1616792;86;20092;-67
2022/09/04 06:44:30;;;;;;;;;;;;;;;35.16;23.14;99886.14;1552196;89;21252;-64
2022/09/04 06:47:07;;;;;;;;;;;;;;;35.32;23.12;99885.11;1614818;87;20115;-68
2022/09/04 06:49:52;;;;;;;;;;;;;;;35.70;22.87;99882.53;1619548;87;20126;-66
2022/09/04 06:52:31;;;;;;;;;;;;;;;36.32;22.36;99888.50;1610554;87;20144;-67
2022/09/04 06:55:00;;;;;;;;;;;;;;;36.90;21.55;99886.37;1612051;87;20186;-67
2022/09/04 06:57:39;;;;;;;;;;;;;;;37.34;20.60;99881.63;1618778;87;21186;-65
2022/09/04 07:00:10;;;;;;;;;;;;;;;37.36;20.56;99884.91;1629522;87;20177;-67
2022/09/04 07:02:58;;;;;;;;;;;;;;;37.49;20.49;99891.36;1608412;87;20426;-67
2022/09/04 07:05:41;;;;;;;;;;;;;;;37.68;20.32;99892.48;1616734;87;20181;-63
2022/09/04 07:08:31;;;;;;;;;;;;;;;38.17;19.91;99885.77;1625347;87;20105;-66
2022/09/04 07:11:14;;;;;;;;;;;;;;;38.69;19.45;99887.38;1611594;87;21327;-65
2022/09/04 07:14:15;;;;;;;;;;;;;;;38.95;19.24;99887.05;1612760;87;20136;-66
2022/09/04 07:16:50;;;;;;;;;;;;;;;39.13;18.85;99892.03;1610813;87;20092;-65
2022/09/04 07:19:23;;;;;;;;;;;;;;;39.21;18.91;99894.48;1612927;87;20619;-66
2022/09/04 07:21:53;;;;;;;;;;;;;;;39.36;18.32;99895.95;1611523;87;20263;-66
2022/09/04 07:24:35;;;;;;;;;;;;;;;39.27;18.48;99901.40;1612778;87;20754;-66
2022/09/04 07:27:39;;;;;;;;;;;;;;;39.57;18.40;99892.17;1609736;87;20096;-66
2022/09/04 07:30:07;;;;;;;;;;;;;;;39.59;18.17;99894.83;1612446;87;20094;-67
2022/09/04 07:33:01;;;;;;;;;;;;;;;39.78;18.32;99904.78;1612742;87;20132;-67
2022/09/04 07:35:37;;;;;;;;;;;;;;;39.90;17.72;99908.90;1606247;87;20104;-64
2022/09/04 07:38:30;;;;;;;;;;;;;;;39.73;18.13;99905.03;1606732;87;21344;-66
2022/09/04 07:41:15;;;;;;;;;;;;;;;39.86;17.83;99909.39;1609180;87;20147;-68
2022/09/04 07:43:49;;;;;;;;;;;;;;;39.81;17.67;99913.83;1612469;87;20153;-67
2022/09/04 07:46:29;;;;;;;;;;;;;;;39.52;18.05;99911.33;1614415;87;20167;-66
2022/09/04 07:49:22;;;;;;;;;;;;;;;39.83;18.12;99912.88;1610864;87;20161;-66
2022/09/04 07:51:55;;;;;;;;;;;;;;;40.12;17.41;99909.52;1613339;87;21190;-65
2022/09/04 07:54:28;;;;;;;;;;;;;;;39.95;17.39;99906.43;1613929;87;20089;-68
2022/09/04 07:57:20;;;;;;;;;;;;;;;40.05;17.13;99905.37;1617131;87;20441;-69
2022/09/04 07:59:53;;;;;;;;;;;;;;;40.13;17.20;99904.19;1608483;87;20193;-71
2022/09/04 08:02:35;;;;;;;;;;;;;;;39.42;17.09;99908.44;1610522;87;20509;-68
2022/09/04 08:05:35;;;;;;;;;;;;;;;38.52;18.04;99907.86;1612851;87;21800;-67
2022/09/04 08:08:12;;;;;;;;;;;;;;;37.60;19.08;99914.19;1612155;87;20100;-70
2022/09/04 08:10:48;;;;;;;;;;;;;;;37.71;19.33;99908.47;1612308;87;20214;-67
2022/09/04 08:13:39;;;;;;;;;;;;;;;38.64;18.83;99913.41;1615783;87;20181;-67
2022/09/04 08:16:07;;;;;;;;;;;;;;;39.65;16.92;99906.56;1587340;88;20185;-66
2022/09/04 08:18:46;;;;;;;;;;;;;;;40.38;16.32;99910.66;1582992;89;21289;-66
2022/09/04 08:21:29;;;;;;;;;;;;;;;40.63;15.41;99900.97;1584804;89;20187;-70
2022/09/04 08:24:16;;;;;;;;;;;;;;;40.86;15.21;99906.70;1583898;89;20145;-66
2022/09/04 08:27:21;;;;;;;;;;;;;;;39.98;15.75;99909.33;1610725;87;20227;-70
2022/09/04 08:29:54;;;;;;;;;;;;;;;38.18;16.54;99909.59;1614862;87;20152;-65
2022/09/04 08:32:41;;;;;;;;;;;;;;;37.61;17.47;99911.66;1611789;87;21161;-64
2022/09/04 08:35:17;;;;;;;;;;;;;;;38.49;16.51;99909.93;1611660;87;20450;-67
2022/09/04 08:37:50;;;;;;;;;;;;;;;39.13;15.74;99912.07;1612805;87;20131;-68
2022/09/04 08:40:42;;;;;;;;;;;;;;;38.35;16.55;99911.42;1612733;87;20148;-67
2022/09/04 08:43:12;;;;;;;;;;;;;;;37.13;17.74;99918.23;1613212;87;20412;-66
2022/09/04 08:46:17;;;;;;;;;;;;;;;35.57;18.92;99919.48;1609713;87;21122;-66
2022/09/04 08:48:47;;;;;;;;;;;;;;;34.51;19.84;99926.09;1613298;87;20426;-67
2022/09/04 08:51:39;;;;;;;;;;;;;;;34.75;20.21;99928.52;1610789;87;20569;-67
2022/09/04 08:54:29;;;;;;;;;;;;;;;35.22;19.65;99927.69;1612217;87;20152;-66
2022/09/04 08:57:16;;;;;;;;;;;;;;;35.42;19.17;99917.16;1598718;88;20144;-68
2022/09/04 08:59:49;;;;;;;;;;;;;;;35.27;19.21;99910.98;1594939;88;22184;-67
2022/09/04 09:02:31;;;;;;;;;;;;;;;34.49;19.15;99915.12;1600169;88;20152;-67
2022/09/04 09:05:21;;;;;;;;;;;;;;;34.40;19.75;99911.48;1600361;88;20105;-67
2022/09/04 09:08:14;;;;;;;;;;;;;;;35.38;18.84;99909.28;1598891;88;20231;-67
2022/09/04 09:11:12;;;;;;;;;;;;;;;36.56;17.94;99903.98;1597261;88;20150;-67
2022/09/04 09:13:55;;;;;;;;;;;;;;;38.07;16.42;99894.51;1595801;88;21200;-69
2022/09/04 09:16:25;;;;;;;;;;;;;;;38.10;16.06;99895.22;1597706;88;20100;-67
2022/09/04 09:19:24;;;;;;;;;;;;;;;37.16;16.61;99900.94;1599339;88;32709;-66
2022/09/04 09:22:23;;;;;;;;;;;;;;;36.01;17.26;99898.40;1595753;88;20188;-69
2022/09/04 09:25:23;;;;;;;;;;;;;;;34.67;18.57;99905.25;1574284;88;20157;-70
2022/09/04 09:28:26;;;;;;;;;;;;;;;33.40;19.43;99908.09;1578458;88;21252;-69
2022/09/04 09:31:15;;;;;;;;;;;;;;;31.94;20.60;99913.61;1597648;88;20129;-67
2022/09/04 09:34:13;;;;;;;;;;;;;;;30.67;22.26;99921.09;1596077;88;20137;-67
2022/09/04 09:37:07;;;;;;;;;;;;;;;29.63;23.14;99907.42;1602940;88;20229;-66
2022/09/04 09:39:49;;;;;;;;;;;;;;;28.77;24.54;99907.83;1621244;88;20159;-68
2022/09/04 09:42:37;;;;;;;;;;;;;;;28.23;25.42;99913.67;1594624;88;21095;-66
2022/09/04 09:45:43;;;;;;;;;;;;;;;27.63;26.38;99916.63;1605814;88;20155;-69
2022/09/04 09:48:39;;;;;;;;;;;;;;;27.06;26.62;99915.90;1601314;88;20130;-66
2022/09/04 09:51:26;;;;;;;;;;;;;;;26.55;27.08;99922.43;1600491;88;20115;-69
2022/09/04 09:54:14;;;;;;;;;;;;;;;26.25;27.64;99922.23;1596565;88;20191;-72
2022/09/04 09:56:46;;;;;;;;;;;;;;;25.99;28.38;99921.19;1595666;86;21666;-75
2022/09/04 09:59:32;;;;;;;;;;;;;;;25.74;28.78;99927.22;1620335;86;20226;-72
2022/09/04 10:02:26;;;;;;;;;;;;;;;25.51;29.24;99928.91;1618661;87;20092;-72
2022/09/04 10:05:11;;;;;;;;;;;;;;;25.29;29.35;99927.27;1619226;87;20214;-71
2022/09/04 10:07:44;;;;;;;;;;;;;;;25.09;29.51;99925.11;1636339;87;20106;-72
2022/09/04 10:10:39;;;;;;;;;;;;;;;25.02;29.54;99921.23;1625627;87;21177;-66
2022/09/04 10:13:30;;;;;;;;;;;;;;;25.00;29.86;99926.09;1617793;87;20092;-72
2022/09/04 10:16:13;;;;;;;;;;;;;;;25.10;30.26;99923.52;1635357;86;20102;-67
2022/09/04 10:19:00;;;;;;;;;;;;;;;25.21;29.97;99923.10;1636108;87;20123;-67
2022/09/04 10:21:48;;;;;;;;;;;;;;;25.30;29.31;99923.45;1611680;87;20105;-66
2022/09/04 10:24:42;;;;;;;;;;;;;;;25.45;29.10;99922.25;1614172;87;21278;-69
2022/09/04 10:27:28;;;;;;;;;;;;;;;25.82;28.86;99927.82;1633993;87;20142;-67
2022/09/04 10:30:06;;;;;;;;;;;;;;;27.44;27.85;99915.49;1616093;87;20096;-66
2022/09/04 10:32:50;;;;;;;;;;;;;;;29.75;24.68;99914.72;1624726;87;20142;-67
2022/09/04 10:35:24;;;;;;;;;;;;;;;31.68;22.62;99898.08;1630351;86;20425;-67
2022/09/04 10:38:00;;;;;;;;;;;;;;;32.82;21.29;99896.94;1628041;87;21164;-67
2022/09/04 10:40:39;;;;;;;;;;;;;;;33.50;20.71;99897.41;1634987;87;20090;-67
2022/09/04 10:43:18;;;;;;;;;;;;;;;33.64;20.44;99891.30;1625928;87;20090;-66
2022/09/04 10:46:09;;;;;;;;;;;;;;;33.16;19.47;99890.19;1627697;87;20150;-67
2022/09/04 10:49:00;;;;;;;;;;;;;;;31.68;20.09;99892.58;1636673;87;20136;-67
2022/09/04 10:51:50;;;;;;;;;;;;;;;30.41;21.45;99903.52;1624167;87;21283;-69
2022/09/04 10:54:27;;;;;;;;;;;;;;;29.62;22.10;99907.17;1628725;87;20448;-68
2022/09/04 10:57:09;;;;;;;;;;;;;;;28.71;23.23;99911.13;1602244;87;20237;-66
2022/09/04 10:59:39;;;;;;;;;;;;;;;27.77;24.46;99916.91;1615358;87;20400;-68
2022/09/04 11:02:31;;;;;;;;;;;;;;;27.05;24.98;99911.52;1610042;87;20132;-68
2022/09/04 11:05:05;;;;;;;;;;;;;;;26.53;25.27;99916.95;1614349;87;21228;-67
2022/09/04 11:07:55;;;;;;;;;;;;;;;26.33;26.04;99920.39;1606762;87;20437;-66
2022/09/04 11:10:45;;;;;;;;;;;;;;;26.25;26.15;99915.42;1611277;87;20434;-69
2022/09/04 11:13:24;;;;;;;;;;;;;;;26.15;25.77;99916.71;1619595;87;20102;-71
2022/09/04 11:16:27;;;;;;;;;;;;;;;25.99;26.25;99912.19;1605953;88;20500;-71
2022/09/04 11:19:28;;;;;;;;;;;;;;;25.95;26.37;99913.77;1590115;89;21936;-71
2022/09/04 11:22:01;;;;;;;;;;;;;;;25.93;26.13;99909.13;1591870;89;20133;-74
2022/09/04 11:24:40;;;;;;;;;;;;;;;25.83;26.33;99913.95;1595508;89;20102;-74
2022/09/04 11:27:30;;;;;;;;;;;;;;;25.76;26.50;99907.34;1568993;89;20180;-74
2022/09/04 11:30:12;;;;;;;;;;;;;;;25.69;26.63;99908.11;1587031;89;20132;-73
2022/09/04 11:33:05;;;;;;;;;;;;;;;25.76;26.63;99908.70;1583207;89;21883;-74
2022/09/04 11:35:53;;;;;;;;;;;;;;;25.90;26.85;99899.56;1610302;87;20179;-75
2022/09/04 11:38:29;;;;;;;;;;;;;;;25.98;26.12;99900.98;1631979;87;20141;-71
2022/09/04 11:41:32;;;;;;;;;;;;;;;26.00;25.99;99903.73;1623525;87;20128;-73
2022/09/04 11:44:21;;;;;;;;;;;;;;;26.08;26.02;99901.89;1618945;87;20463;-72
2022/09/04 11:47:11;;;;;;;;;;;;;;;26.05;26.38;99894.77;1629207;87;21923;-73
2022/09/04 11:49:53;;;;;;;;;;;;;;;26.13;26.68;99897.05;1636597;87;20102;-71
2022/09/04 11:52:46;;;;;;;;;;;;;;;26.25;26.82;99897.13;1601244;87;20100;-71
2022/09/04 11:55:19;;;;;;;;;;;;;;;26.37;26.68;99892.86;1613732;87;20179;-70
2022/09/04 11:57:56;;;;;;;;;;;;;;;26.39;26.12;99892.05;1600038;88;20165;-73
2022/09/04 12:00:23;;;;;;;;;;;;;;;26.48;26.40;99889.11;1606558;88;21196;-68
2022/09/04 12:03:00;;;;;;;;;;;;;;;26.60;26.11;99889.72;1609936;88;20202;-69
2022/09/04 12:05:44;;;;;;;;;;;;;;;26.68;25.96;99896.03;1598855;88;20091;-68
2022/09/04 12:08:42;;;;;;;;;;;;;;;26.75;25.92;99890.35;1613492;88;20430;-68
2022/09/04 12:11:32;;;;;;;;;;;;;;;26.75;26.06;99891.15;1603980;88;20194;-68
2022/09/04 12:14:13;;;;;;;;;;;;;;;26.66;25.95;99888.66;1616318;88;20120;-70
2022/09/04 12:17:14;;;;;;;;;;;;;;;26.55;25.65;99891.05;1598851;88;20143;-67
2022/09/04 12:19:57;;;;;;;;;;;;;;;26.34;25.34;99887.92;1612182;88;20150;-72
2022/09/04 12:22:51;;;;;;;;;;;;;;;26.14;26.03;99886.43;1591238;88;20871;-69
2022/09/04 12:25:34;;;;;;;;;;;;;;;26.05;26.52;99889.31;1622365;88;20178;-69
2022/09/04 12:28:32;;;;;;;;;;;;;;;25.98;26.81;99890.09;1620439;88;21186;-70
2022/09/04 12:31:13;;;;;;;;;;;;;;;25.91;26.20;99887.59;1611090;88;20460;-67
2022/09/04 12:34:02;;;;;;;;;;;;;;;25.74;26.26;99884.16;1604041;88;20151;-74
2022/09/04 12:36:52;;;;;;;;;;;;;;;25.61;26.19;99881.86;1605896;88;20154;-71
2022/09/04 12:39:42;;;;;;;;;;;;;;;25.29;26.36;99879.63;1606168;88;20521;-68
2022/09/04 12:42:27;;;;;;;;;;;;;;;25.01;26.81;99876.57;1611463;88;21272;-68
2022/09/04 12:45:07;;;;;;;;;;;;;;;24.79;27.62;99879.32;1615238;88;20305;-68
2022/09/04 12:48:02;;;;;;;;;;;;;;;24.67;27.35;99881.28;1601807;88;20461;-69
2022/09/04 12:50:43;;;;;;;;;;;;;;;24.29;28.04;99878.05;1605182;88;20217;-67
2022/09/04 12:53:43;;;;;;;;;;;;;;;24.01;27.87;99871.34;1593695;88;20566;-69
2022/09/04 12:56:39;;;;;;;;;;;;;;;23.72;28.21;99872.49;1591055;88;21277;-68
2022/09/04 12:59:25;;;;;;;;;;;;;;;23.50;28.65;99872.37;1597655;88;20144;-66
2022/09/04 13:02:26;;;;;;;;;;;;;;;23.34;28.94;99869.89;1600758;88;20093;-67
2022/09/04 13:05:02;;;;;;;;;;;;;;;23.08;28.87;99873.72;1598130;88;20647;-68
2022/09/04 13:07:31;;;;;;;;;;;;;;;22.90;29.93;99877.44;1594283;88;20431;-70
2022/09/04 13:10:13;;;;;;;;;;;;;;;22.71;30.34;99870.52;1621616;88;21342;-70
2022/09/04 13:13:20;;;;;;;;;;;;;;;22.70;30.41;99874.31;1622265;88;20445;-68
2022/09/04 13:16:04;;;;;;;;;;;;;;;22.74;30.42;99870.87;1541635;92;20142;-69
2022/09/04 13:18:59;;;;;;;;;;;;;;;22.81;30.41;99874.83;1534826;93;20220;-70
2022/09/04 13:22:02;;;;;;;;;;;;;;;22.70;30.55;99881.92;1560375;89;20191;-70
2022/09/04 13:24:41;;;;;;;;;;;;;;;22.69;30.43;99875.37;1588563;89;21200;-69
2022/09/04 13:27:39;;;;;;;;;;;;;;;22.80;30.30;99877.23;1590934;89;20155;-68
2022/09/04 13:30:20;;;;;;;;;;;;;;;22.61;30.09;99877.89;1581666;89;20177;-67
2022/09/04 13:33:13;;;;;;;;;;;;;;;22.33;30.87;99881.88;1602769;89;20163;-67
2022/09/04 13:35:46;;;;;;;;;;;;;;;22.24;31.45;99878.41;1602839;89;20195;-67
2022/09/04 13:38:19;;;;;;;;;;;;;;;22.28;31.61;99882.29;1597717;89;21288;-70
2022/09/04 13:41:06;;;;;;;;;;;;;;;22.36;31.00;99880.58;1587239;89;20153;-68
2022/09/04 13:43:51;;;;;;;;;;;;;;;22.39;30.68;99883.65;1588837;89;20091;-68
2022/09/04 13:46:21;;;;;;;;;;;;;;;22.41;30.77;99878.81;1578944;89;20156;-68
2022/09/04 13:48:54;;;;;;;;;;;;;;;22.48;30.59;99884.92;1577811;89;20517;-69
2022/09/04 13:51:23;;;;;;;;;;;;;;;22.51;30.54;99880.91;1580953;89;21809;-67
2022/09/04 13:54:21;;;;;;;;;;;;;;;22.41;30.51;99888.30;1580565;89;20216;-67
2022/09/04 13:57:09;;;;;;;;;;;;;;;22.36;30.39;99884.64;1586668;89;20131;-68
2022/09/04 13:59:35;;;;;;;;;;;;;;;22.33;30.95;99887.82;1605828;89;20155;-67
2022/09/04 14:02:05;;;;;;;;;;;;;;;22.28;30.83;99883.12;1629597;87;20126;-67
2022/09/04 14:04:44;;;;;;;;;;;;;;;22.28;30.97;99886.36;1647292;87;21188;-70
2022/09/04 14:07:16;;;;;;;;;;;;;;;22.29;30.96;99886.11;1633948;87;20459;-67
2022/09/04 14:09:44;;;;;;;;;;;;;;;22.25;31.13;99890.36;1648425;87;20090;-67
2022/09/04 14:12:23;;;;;;;;;;;;;;;22.05;31.15;99893.44;1648502;87;20134;-67
2022/09/04 14:15:04;;;;;;;;;;;;;;;21.90;31.29;99889.53;1635986;86;20176;-67